In Rescue
 
Open Full Screen Window  High Contrast Mode
Wind Gusting 00 knots
05
March 01, 2024 2:39 PM EST
Weather Information
Wind Direction
  150 °
Wind Speed
  05 kt (6 mph)
Wind Gust
  00 kt (0 mph)
Altimeter
30.25 in
Visibility
10 SM
Temperature
06° C
43° F
Dewpoint
-05° C
23° F
Humidity
45%
Sky Condition
Overcast @ 9,000 ft
Scattered @ 6,500 ft
VFR

METAR KDLZ 011939Z AUTO 15005KT 10SM SCT065 OVC090 06/M05 A3025 RMK AO2

FAA Disclaimer: The data displayed is for advisory purposes only and is not to be used for flight planning or operations.